Time;durP1;ratioP1;P1;durP2;ratioP2;P2;SDS_P1;SDS_P2;PMS_P1;PMS_P2;Temp;Humidity;BMP_temperature;BMP_pressure;BME280_temperature;BME280_humidity;BME280_pressure;Samples;Min_cycle;Max_cycle;Signal;HPM_P1;HPM_P2
2023/02/21 02:16:36;;;;;;;4.25;2.80;;;5.70;59.40;;;0.76;100.00;95959.53;4943037;28;20516;-52
2023/02/21 02:19:41;;;;;;;4.85;2.95;;;5.70;59.50;;;0.68;100.00;95957.84;4955512;28;20037;-55
2023/02/21 02:22:56;;;;;;;5.72;3.00;;;5.60;59.50;;;0.60;100.00;95952.78;4945105;28;20030;-54
2023/02/21 02:26:04;;;;;;;7.20;3.45;;;5.50;59.50;;;0.54;100.00;95950.94;4953211;28;20042;-54
2023/02/21 02:29:54;;;;;;;7.97;2.92;;;5.40;60.10;;;0.42;100.00;95958.50;4954875;28;20113;-55
2023/02/21 02:32:38;;;;;;;4.95;3.15;;;5.40;59.60;;;0.42;100.00;95960.34;4954512;28;20033;-54
2023/02/21 02:35:21;;;;;;;6.28;3.22;;;5.30;59.60;;;0.36;100.00;95956.66;4944137;28;20393;-55
2023/02/21 02:38:34;;;;;;;6.75;3.40;;;5.20;59.70;;;0.32;100.00;95959.88;4958231;28;20386;-55
2023/02/21 02:41:42;;;;;;;5.43;3.13;;;5.20;59.70;;;0.23;100.00;95956.56;4953678;28;20583;-55
2023/02/21 02:44:49;;;;;;;4.38;3.08;;;5.10;59.70;;;0.22;100.00;95947.09;4923132;28;20576;-53
2023/02/21 02:47:30;;;;;;;5.25;3.30;;;5.10;59.80;;;0.19;100.00;95952.72;4953091;28;20731;-51
2023/02/21 02:49:59;;;;;;;7.13;3.72;;;5.00;59.90;;;0.20;100.00;95962.19;4951959;28;20041;-54
2023/02/21 02:52:28;;;;;;;7.45;3.20;;;5.00;60.00;;;0.19;100.00;95950.91;4951725;28;20121;-53
2023/02/21 02:55:49;;;;;;;6.68;3.58;;;5.00;60.10;;;0.12;100.00;95947.41;4983584;23;20970;-55
2023/02/21 02:58:21;;;;;;;4.68;3.30;;;5.00;60.20;;;0.07;100.00;95947.19;4931358;29;20062;-53
2023/02/21 03:01:32;;;;;;;6.28;3.85;;;5.00;60.10;;;0.02;100.00;95946.94;4958310;28;20030;-53
2023/02/21 03:05:11;;;;;;;6.82;3.67;;;4.90;60.10;;;0.02;100.00;95946.94;4964788;28;20053;-54
2023/02/21 03:08:10;;;;;;;5.90;4.20;;;4.90;60.30;;;0.04;100.00;95950.19;4929281;28;20036;-52
2023/02/21 03:11:20;;;;;;;6.90;4.10;;;4.80;60.40;;;0.03;100.00;95950.34;4935641;29;20030;-50
2023/02/21 03:14:18;;;;;;;7.68;3.83;;;4.80;60.60;;;0.04;100.00;95954.63;4897201;29;20039;-53
2023/02/21 03:17:00;;;;;;;4.68;3.53;;;4.80;60.80;;;0.00;100.00;95948.94;4934947;29;20026;-50
2023/02/21 03:19:37;;;;;;;6.97;4.43;;;4.80;60.80;;;-0.02;100.00;95946.50;4935359;28;20058;-50
2023/02/21 03:22:16;;;;;;;6.03;3.78;;;4.80;60.90;;;-0.05;100.00;95939.03;4935558;29;20034;-52
2023/02/21 03:24:49;;;;;;;8.93;4.40;;;4.80;60.90;;;-0.06;100.00;95941.84;4935842;29;20041;-54
2023/02/21 03:27:24;;;;;;;7.47;4.20;;;4.80;60.90;;;-0.05;100.00;95943.47;4926250;28;20022;-51
2023/02/21 03:30:00;;;;;;;7.03;3.90;;;4.80;61.00;;;-0.08;100.00;95942.03;4935617;29;20401;-51
2023/02/21 03:32:54;;;;;;;9.68;4.25;;;4.80;61.10;;;-0.05;100.00;95939.03;4927659;28;20022;-55
2023/02/21 03:35:22;;;;;;;8.98;4.63;;;4.80;61.20;;;-0.03;100.00;95938.84;4950207;28;20130;-53
2023/02/21 03:37:52;;;;;;;7.82;4.18;;;4.80;61.10;;;-0.03;100.00;95942.28;4934424;29;20197;-50
2023/02/21 03:40:30;;;;;;;7.82;4.13;;;4.80;61.30;;;-0.04;100.00;95945.06;4935118;29;20030;-50
2023/02/21 03:43:06;;;;;;;7.15;4.45;;;4.80;61.40;;;-0.07;100.00;95951.50;4935836;29;20085;-50
2023/02/21 03:45:33;;;;;;;10.27;4.65;;;4.80;61.40;;;-0.08;100.00;95944.63;4950478;28;20442;-51
2023/02/21 03:47:59;;;;;;;7.57;4.60;;;4.80;61.40;;;-0.06;100.00;95955.75;4936312;29;20023;-50
2023/02/21 03:50:28;;;;;;;8.07;4.28;;;4.80;61.50;;;-0.11;100.00;95950.25;4933686;29;20027;-54
2023/02/21 03:52:57;;;;;;;7.53;4.85;;;4.80;61.50;;;-0.09;100.00;95948.28;4951429;28;20519;-55
2023/02/21 03:55:29;;;;;;;7.15;4.80;;;4.80;61.50;;;-0.09;100.00;95956.13;4933183;29;20490;-55
2023/02/21 03:57:56;;;;;;;;;;;4.80;61.50;;;-0.08;100.00;95949.88;4936899;29;20109;-53
2023/02/21 04:00:22;;;;;;;6.90;3.88;;;4.80;61.30;;;-0.08;100.00;95947.25;4930260;29;19906;-51
2023/02/21 04:02:51;;;;;;;6.53;3.90;;;4.80;61.40;;;-0.13;100.00;95941.75;4931192;29;20037;-52
2023/02/21 04:05:20;;;;;;;8.10;4.82;;;4.80;61.40;;;-0.15;100.00;95937.75;4935488;29;20027;-51
2023/02/21 04:07:46;;;;;;;9.52;4.55;;;4.70;61.40;;;-0.16;100.00;95939.53;4918068;29;20035;-53
2023/02/21 04:10:14;;;;;;;9.57;4.60;;;4.70;61.40;;;-0.18;100.00;95940.75;4936121;29;20023;-54
2023/02/21 04:12:40;;;;;;;7.78;4.97;;;4.70;61.40;;;-0.19;100.00;95933.84;4934774;29;20458;-55
2023/02/21 04:15:12;;;;;;;12.27;5.60;;;4.70;61.40;;;-0.18;100.00;95938.13;4933946;29;20070;-53
2023/02/21 04:17:41;;;;;;;8.52;5.78;;;4.70;61.80;;;-0.17;100.00;95924.81;4934885;29;20023;-56
2023/02/21 04:20:10;;;;;;;10.38;5.47;;;4.70;61.80;;;-0.18;100.00;95933.69;4946886;28;20069;-56
2023/02/21 04:22:36;;;;;;;8.32;5.30;;;4.70;61.90;;;-0.18;100.00;95931.06;4933437;29;20049;-53
2023/02/21 04:25:02;;;;;;;11.73;6.40;;;4.70;61.90;;;-0.12;100.00;95932.94;4949855;28;20031;-53
2023/02/21 04:27:34;;;;;;;9.07;5.70;;;4.70;62.10;;;-0.08;100.00;95935.97;4932730;29;20545;-53
2023/02/21 04:30:03;;;;;;;13.98;6.28;;;4.70;62.30;;;-0.05;100.00;95933.78;4933969;29;20037;-51
2023/02/21 04:32:29;;;;;;;8.32;5.40;;;4.70;62.30;;;-0.10;100.00;95930.91;4931670;29;20031;-49
2023/02/21 04:34:57;;;;;;;9.40;5.38;;;4.80;62.40;;;-0.13;100.00;95935.72;4931656;29;20537;-53
2023/02/21 04:37:24;;;;;;;9.73;5.32;;;4.80;62.30;;;-0.16;100.00;95929.06;4936458;29;20065;-51
2023/02/21 04:39:53;;;;;;;12.77;5.47;;;4.80;62.20;;;-0.20;100.00;95930.44;4937495;29;20470;-50
2023/02/21 04:42:28;;;;;;;11.05;6.45;;;4.70;62.10;;;-0.25;100.00;95936.25;4930998;29;20027;-52
2023/02/21 04:45:07;;;;;;;10.20;7.28;;;4.70;62.20;;;-0.29;100.00;95931.56;4934060;29;20031;-50
2023/02/21 04:47:32;;;;;;;11.75;6.10;;;4.70;62.10;;;-0.30;100.00;95949.09;4936432;28;20354;-50
2023/02/21 04:50:05;;;;;;;11.65;6.57;;;4.60;62.00;;;-0.34;100.00;95940.00;4937140;29;20085;-50
2023/02/21 04:52:32;;;;;;;13.23;7.18;;;4.70;62.10;;;-0.31;100.00;95949.28;4937375;29;20030;-53
2023/02/21 04:54:58;;;;;;;13.50;7.07;;;4.60;62.10;;;-0.34;100.00;95937.38;4937229;29;20102;-53
2023/02/21 04:57:31;;;;;;;11.52;7.35;;;4.60;62.20;;;-0.28;100.00;95939.25;4936151;29;20103;-52
2023/02/21 05:00:00;;;;;;;13.38;7.65;;;4.60;62.40;;;-0.21;100.00;95939.28;4921885;29;20492;-51
2023/02/21 05:02:27;;;;;;;13.27;7.53;;;4.60;62.50;;;-0.21;100.00;95936.69;4937552;29;20051;-54
2023/02/21 05:04:56;;;;;;;14.32;7.95;;;4.60;62.50;;;-0.26;100.00;95945.09;4904855;29;20465;-50
2023/02/21 05:07:22;;;;;;;14.10;7.43;;;4.60;62.50;;;-0.24;100.00;95945.72;4937592;29;20053;-56
2023/02/21 05:09:48;;;;;;;13.55;8.23;;;4.60;62.50;;;-0.25;100.00;95941.50;4938832;29;20027;-52
2023/02/21 05:12:17;;;;;;;17.45;9.15;;;4.60;62.60;;;-0.25;100.00;95941.50;4936724;29;20030;-52
2023/02/21 05:14:43;;;;;;;13.55;8.45;;;4.60;62.60;;;-0.22;100.00;95935.03;4919036;29;20046;-51
2023/02/21 05:17:09;;;;;;;19.63;9.57;;;4.60;62.60;;;-0.23;100.00;95936.03;4939459;28;20394;-52
2023/02/21 05:19:35;;;;;;;18.85;9.35;;;4.60;62.60;;;-0.21;100.00;95928.03;4934162;29;20094;-51
2023/02/21 05:22:05;;;;;;;15.68;9.13;;;4.60;62.70;;;-0.21;100.00;95935.88;4951522;28;20038;-49
2023/02/21 05:24:31;;;;;;;15.25;8.60;;;4.60;62.80;;;-0.20;100.00;95929.63;4934977;29;20023;-49
2023/02/21 05:27:01;;;;;;;17.30;8.82;;;4.60;62.80;;;-0.22;100.00;95929.81;4919010;29;20126;-52
2023/02/21 05:29:26;;;;;;;16.30;8.95;;;4.60;62.90;;;-0.29;100.00;95927.13;4935645;29;20110;-55
2023/02/21 05:31:52;;;;;;;17.75;9.98;;;4.60;62.70;;;-0.30;100.00;95933.38;4936117;28;20031;-52
2023/02/21 05:34:26;;;;;;;16.27;9.38;;;4.60;62.70;;;-0.36;100.00;95936.75;4951686;28;20145;-54
2023/02/21 05:36:52;;;;;;;15.82;8.85;;;4.60;62.70;;;-0.38;100.00;95938.72;4936767;29;20027;-52
2023/02/21 05:39:21;;;;;;;15.57;9.00;;;4.60;62.70;;;-0.37;100.00;95940.38;4935833;29;20577;-51
2023/02/21 05:41:49;;;;;;;17.83;9.43;;;4.60;62.70;;;-0.41;100.00;95933.06;4937209;29;20126;-53
2023/02/21 05:44:16;;;;;;;19.27;10.57;;;4.60;62.70;;;-0.45;100.00;95943.09;4935530;29;20482;-51
2023/02/21 05:46:43;;;;;;;18.83;10.10;;;4.60;62.70;;;-0.43;100.00;95948.16;4937377;29;20019;-50
2023/02/21 05:49:09;;;;;;;24.13;11.73;;;4.50;62.70;;;-0.39;100.00;95944.16;4937715;29;20043;-51
2023/02/21 05:51:42;;;;;;;19.17;10.98;;;4.50;62.80;;;-0.41;100.00;95946.16;4935133;29;20022;-50
2023/02/21 05:54:21;;;;;;;19.42;10.18;;;4.50;63.00;;;-0.40;100.00;95939.94;4920618;29;20123;-52
2023/02/21 05:56:50;;;;;;;22.30;10.95;;;4.50;63.20;;;-0.37;100.00;95940.38;4918461;29;20510;-52
2023/02/21 05:59:20;;;;;;;21.15;11.70;;;4.50;63.10;;;-0.40;100.00;95943.34;4951845;28;20525;-50
2023/02/21 06:01:48;;;;;;;21.25;11.40;;;4.50;63.30;;;-0.40;100.00;95945.97;4934263;28;20031;-51
2023/02/21 06:04:15;;;;;;;17.85;10.48;;;4.50;63.20;;;-0.38;100.00;95940.53;4934258;29;20026;-54
2023/02/21 06:06:43;;;;;;;18.98;10.02;;;4.50;63.30;;;-0.42;100.00;95947.16;4935483;29;20265;-53
2023/02/21 06:09:17;;;;;;;20.40;11.00;;;4.50;63.20;;;-0.44;100.00;95943.91;4935451;28;20302;-55
2023/02/21 06:11:45;;;;;;;26.08;12.50;;;4.40;63.20;;;-0.43;100.00;95950.78;4950496;28;20367;-51
2023/02/21 06:14:19;;;;;;;25.63;13.70;;;4.40;63.20;;;-0.42;100.00;95947.97;4933420;29;20023;-54
2023/02/21 06:16:46;;;;;;;28.88;13.95;;;4.40;63.40;;;-0.38;100.00;95951.81;4942974;28;20035;-56
2023/02/21 06:19:17;;;;;;;26.67;13.45;;;4.50;63.60;;;-0.34;100.00;95950.47;4930366;29;20038;-50
2023/02/21 06:21:45;;;;;;;35.70;13.63;;;4.50;63.60;;;-0.32;100.00;95950.25;4933721;29;20023;-54
2023/02/21 06:24:16;;;;;;;25.55;13.93;;;4.50;63.60;;;-0.32;100.00;95958.91;4933956;29;20027;-54
2023/02/21 06:26:42;;;;;;;30.67;15.23;;;4.50;63.60;;;-0.32;100.00;95956.31;4946679;28;20386;-54
2023/02/21 06:29:09;;;;;;;29.45;13.63;;;4.60;64.10;;;-0.31;100.00;95955.31;4931224;29;20027;-52
2023/02/21 06:31:35;;;;;;;30.23;14.95;;;4.60;63.80;;;-0.25;100.00;95951.16;4931521;29;20445;-52
2023/02/21 06:34:02;;;;;;;31.83;15.50;;;4.60;63.80;;;-0.17;100.00;95953.63;4933427;29;20120;-52
2023/02/21 06:36:29;;;;;;;36.83;16.05;;;4.70;64.10;;;-0.13;100.00;95954.84;4930970;29;20034;-50
2023/02/21 06:38:58;;;;;;;38.45;16.10;;;4.70;64.10;;;-0.12;100.00;95956.50;4932129;29;20034;-53
2023/02/21 06:41:30;;;;;;;26.10;13.80;;;4.70;64.10;;;-0.09;100.00;95960.56;4933850;29;20026;-52
2023/02/21 06:43:59;;;;;;;28.92;13.77;;;4.80;64.10;;;-0.14;100.00;95963.72;4949029;28;20547;-57
2023/02/21 06:46:29;;;;;;;28.55;14.50;;;4.80;64.00;;;-0.12;100.00;95958.31;4946139;28;20031;-50
2023/02/21 06:48:56;;;;;;;27.20;14.15;;;4.90;63.90;;;-0.11;100.00;95963.34;4937899;28;20039;-52
2023/02/21 06:51:28;;;;;;;33.63;15.52;;;4.90;63.80;;;-0.08;100.00;95972.66;4944573;28;20058;-51
2023/02/21 06:53:56;;;;;;;30.55;15.40;;;4.90;63.80;;;-0.03;100.00;95972.91;4931302;29;20023;-53
2023/02/21 06:56:23;;;;;;;29.08;14.27;;;4.90;64.70;;;0.06;100.00;95974.34;4932508;29;20078;-52
2023/02/21 06:58:48;;;;;;;27.00;14.45;;;5.00;64.00;;;0.12;100.00;95976.22;4933498;29;20054;-51
2023/02/21 07:01:14;;;;;;;35.00;15.93;;;5.00;64.00;;;0.15;100.00;95978.47;4929539;29;20075;-52
2023/02/21 07:03:43;;;;;;;29.63;15.73;;;5.10;64.00;;;0.17;100.00;95989.56;4933809;29;20023;-50
2023/02/21 07:06:15;;;;;;;31.45;15.13;;;5.10;64.00;;;0.15;100.00;95982.91;4950072;28;20030;-50
2023/02/21 07:08:44;;;;;;;32.03;16.15;;;5.10;64.00;;;0.15;100.00;95975.84;4934104;29;20030;-55
2023/02/21 07:11:11;;;;;;;27.30;14.18;;;5.20;63.90;;;0.21;100.00;95984.75;4933558;29;20038;-54
2023/02/21 07:13:37;;;;;;;26.75;13.27;;;5.20;63.90;;;0.14;100.00;95979.47;4933036;29;20019;-51
2023/02/21 07:16:04;;;;;;;28.33;13.88;;;5.20;63.80;;;0.18;100.00;95982.53;4935155;29;20027;-54
2023/02/21 07:18:31;;;;;;;24.77;13.05;;;5.20;63.70;;;0.19;100.00;95982.34;4802960;28;25291;-53
2023/02/21 07:20:57;;;;;;;31.65;14.13;;;5.30;63.80;;;0.15;100.00;95993.38;4916432;29;20422;-53
2023/02/21 07:23:23;;;;;;;32.42;14.35;;;5.30;63.70;;;0.19;100.00;95984.16;4933394;29;20029;-50
2023/02/21 07:25:49;;;;;;;25.90;14.32;;;5.30;63.70;;;0.26;100.00;95989.44;4932112;28;20094;-54
2023/02/21 07:28:16;;;;;;;25.20;14.20;;;5.40;63.80;;;0.29;100.00;95984.63;4931776;29;20451;-51
2023/02/21 07:30:42;;;;;;;25.83;13.40;;;5.40;63.70;;;0.31;100.00;95989.66;4913511;29;20026;-52
2023/02/21 07:33:08;;;;;;;24.60;13.25;;;5.40;63.80;;;0.28;100.00;95990.84;4930988;28;20031;-56
2023/02/21 07:35:39;;;;;;;32.30;14.35;;;5.50;63.80;;;0.39;100.00;95990.34;4933050;29;20035;-55
2023/02/21 07:38:05;;;;;;;30.27;14.48;;;5.50;63.80;;;0.49;100.00;95990.00;4932126;28;20046;-55
2023/02/21 07:40:32;;;;;;;23.48;12.98;;;5.60;63.80;;;0.57;100.00;95995.13;4933737;29;20081;-53
2023/02/21 07:42:58;;;;;;;25.60;12.77;;;5.70;63.80;;;0.68;100.00;95985.91;4947617;28;20030;-53
2023/02/21 07:45:26;;;;;;;33.08;14.40;;;5.80;63.80;;;0.83;100.00;95988.41;4940777;28;20019;-56
2023/02/21 07:47:52;;;;;;;24.75;13.23;;;6.10;63.90;;;1.04;100.00;95990.16;4919903;29;20030;-53
2023/02/21 07:50:18;;;;;;;23.90;13.32;;;6.30;63.80;;;1.43;100.00;95983.44;4954814;28;20155;-50
2023/02/21 07:52:45;;;;;;;24.77;13.55;;;6.70;63.90;;;1.81;100.00;95984.50;4935967;28;20065;-54
2023/02/21 07:55:17;;;;;;;25.52;14.45;;;7.00;63.80;;;2.16;100.00;95981.72;4934026;29;20130;-53
2023/02/21 07:57:44;;;;;;;22.30;12.93;;;7.50;64.00;;;2.60;100.00;95984.75;4931868;28;20036;-51
2023/02/21 08:00:14;;;;;;;20.45;11.40;;;7.90;63.90;;;2.93;100.00;95988.13;4932717;29;20453;-54
2023/02/21 08:02:47;;;;;;;17.55;11.32;;;8.10;63.90;;;3.18;100.00;95982.19;4931549;29;20027;-52
2023/02/21 08:05:17;;;;;;;17.23;11.50;;;8.40;63.90;;;3.28;100.00;95985.19;4949116;28;20090;-55
2023/02/21 08:07:48;;;;;;;14.55;9.65;;;8.50;63.70;;;3.38;100.00;95982.09;4931042;29;20023;-57
2023/02/21 08:10:23;;;;;;;14.95;8.68;;;8.60;63.50;;;3.39;100.00;95979.28;4942583;29;20034;-56
2023/02/21 08:12:58;;;;;;;12.45;8.25;;;8.70;63.20;;;3.44;100.00;95974.16;4928046;29;20394;-55
2023/02/21 08:15:30;;;;;;;13.20;7.63;;;8.90;63.10;;;3.58;100.00;95979.38;4932812;29;20486;-56
2023/02/21 08:17:59;;;;;;;13.97;8.07;;;9.00;62.70;;;3.82;100.00;95975.19;4933762;29;20055;-51
2023/02/21 08:20:25;;;;;;;9.75;6.43;;;9.20;62.60;;;4.08;100.00;95982.13;4916937;29;20323;-53
2023/02/21 08:22:51;;;;;;;10.65;7.07;;;9.60;62.40;;;4.44;100.00;95985.91;4935067;29;20026;-51
2023/02/21 08:25:17;;;;;;;9.55;6.18;;;10.00;62.00;;;4.96;100.00;95986.44;4936549;29;20046;-53
2023/02/21 08:27:55;;;;;;;8.15;5.35;;;10.60;61.70;;;5.49;96.54;95973.44;4943537;28;20029;-55
2023/02/21 08:30:21;;;;;;;7.47;5.07;;;11.10;61.10;;;5.92;89.70;95976.91;4937013;29;20031;-52
2023/02/21 08:32:47;;;;;;;11.25;5.45;;;11.60;60.50;;;6.33;85.55;95972.66;4949625;28;20213;-54
2023/02/21 08:35:19;;;;;;;9.90;5.10;;;12.10;59.90;;;6.84;83.14;95979.97;4925727;29;20118;-54
2023/02/21 08:37:48;;;;;;;8.43;4.97;;;12.70;59.20;;;7.30;79.88;95969.53;4934890;28;20474;-54
2023/02/21 08:40:18;;;;;;;9.45;5.32;;;13.20;58.70;;;7.77;77.28;95972.03;4936992;28;20027;-54
2023/02/21 08:42:50;;;;;;;6.38;4.07;;;13.60;57.90;;;8.15;73.37;95979.38;4936908;29;20389;-55
2023/02/21 08:45:22;;;;;;;7.28;4.70;;;14.10;57.20;;;8.45;71.71;95979.09;4933876;29;20118;-56
2023/02/21 08:47:50;;;;;;;5.90;3.95;;;14.60;56.70;;;8.92;69.13;95975.28;4937763;29;20058;-54
2023/02/21 08:50:18;;;;;;;5.68;3.70;;;14.90;55.90;;;9.21;67.62;95973.28;4921084;29;20042;-57
2023/02/21 08:52:55;;;;;;;3.85;3.05;;;15.40;55.30;;;9.62;65.39;95971.13;4937819;29;20019;-57
2023/02/21 08:55:22;;;;;;;4.43;3.50;;;15.90;54.40;;;9.79;63.83;95971.84;4946266;23;20387;-57
2023/02/21 08:57:52;;;;;;;5.38;3.33;;;16.30;53.80;;;10.13;62.05;95974.34;4945221;28;20529;-49
2023/02/21 09:00:23;;;;;;;5.65;3.20;;;16.60;53.00;;;10.17;61.28;95976.22;4928095;29;20097;-51
2023/02/21 09:02:51;;;;;;;5.45;3.38;;;17.00;52.20;;;10.52;59.85;95979.50;4937646;28;20030;-51
2023/02/21 09:05:26;;;;;;;4.85;3.63;;;17.30;51.50;;;10.74;57.55;95974.84;4933667;29;20030;-50
2023/02/21 09:08:01;;;;;;;6.53;3.58;;;17.60;50.60;;;11.29;58.05;95978.16;4932072;29;20401;-57
2023/02/21 09:10:34;;;;;;;6.03;3.55;;;18.00;50.10;;;11.65;56.42;95975.63;4932970;29;20019;-52
2023/02/21 09:13:03;;;;;;;7.22;3.85;;;18.30;49.50;;;11.82;54.86;95973.56;4935416;28;20118;-51
2023/02/21 09:15:29;;;;;;;7.72;3.47;;;18.70;48.90;;;11.94;55.63;95966.16;4947693;28;20035;-53
2023/02/21 09:18:05;;;;;;;5.30;3.60;;;19.00;48.30;;;12.21;53.30;95963.25;4934499;29;20035;-50
2023/02/21 09:20:31;;;;;;;5.88;3.58;;;19.30;47.30;;;12.41;53.26;95959.81;4933359;29;20035;-54
2023/02/21 09:22:57;;;;;;;5.43;3.20;;;19.60;47.00;;;12.73;52.17;95950.72;4934227;29;20023;-49
2023/02/21 09:25:27;;;;;;;4.30;3.10;;;19.90;46.40;;;12.98;50.35;95959.78;4933351;29;20061;-51
2023/02/21 09:27:53;;;;;;;3.22;2.80;;;20.10;45.60;;;13.24;48.60;95949.81;4949316;28;20035;-51
2023/02/21 09:30:25;;;;;;;4.53;3.25;;;20.30;44.90;;;13.39;48.19;95949.78;4933988;29;20031;-53
2023/02/21 09:32:52;;;;;;;4.20;3.28;;;20.50;43.90;;;13.59;48.82;95949.69;4931791;29;20042;-49
2023/02/21 09:35:18;;;;;;;3.40;3.10;;;20.70;43.80;;;13.61;48.52;95942.22;4931930;29;20035;-50
2023/02/21 09:37:45;;;;;;;6.18;3.63;;;20.90;43.30;;;13.97;46.95;95939.34;4947989;28;20026;-51
2023/02/21 09:40:53;;;;;;;3.30;2.67;;;21.10;42.70;;;14.18;46.71;95939.22;4948799;28;20370;-54
2023/02/21 09:44:04;;;;;;;4.00;3.40;;;21.50;42.40;;;14.52;46.36;95941.94;4948358;28;20039;-56
2023/02/21 09:46:40;;;;;;;6.80;3.25;;;21.80;41.70;;;14.63;46.06;95934.59;4929553;29;20031;-54
2023/02/21 09:49:40;;;;;;;6.25;3.95;;;22.10;41.10;;;14.86;45.34;95931.19;4945093;28;20058;-50
2023/02/21 09:52:38;;;;;;;4.20;3.70;;;22.30;40.60;;;14.88;45.39;95931.69;4941277;28;20023;-51
2023/02/21 09:55:32;;;;;;;6.05;3.50;;;22.60;40.30;;;15.30;44.65;95927.50;4945093;28;20397;-51
2023/02/21 09:58:02;;;;;;;11.95;3.60;;;22.80;39.60;;;15.60;43.87;95925.53;4948615;28;20358;-50
2023/02/21 10:00:36;;;;;;;5.80;3.95;;;23.10;39.20;;;15.73;43.23;95919.47;4916388;29;20050;-57
2023/02/21 10:03:45;;;;;;;5.22;4.35;;;23.30;38.50;;;15.58;43.70;95919.69;4919353;29;20070;-52
2023/02/21 10:07:01;;;;;;;5.25;4.47;;;23.60;38.40;;;16.04;44.09;95924.44;4937402;28;20027;-54
2023/02/21 10:09:58;;;;;;;5.60;4.80;;;23.80;37.50;;;16.34;42.92;95921.31;4925040;29;20085;-51
2023/02/21 10:12:37;;;;;;;8.82;5.20;;;24.10;37.30;;;15.93;43.06;95927.28;4920651;28;20117;-53
2023/02/21 10:15:42;;;;;;;8.48;5.55;;;24.30;36.80;;;16.43;42.78;95913.38;4947030;28;20059;-49
2023/02/21 10:18:51;;;;;;;6.60;5.43;;;24.50;36.60;;;16.77;41.38;95907.75;4948371;28;20438;-53
2023/02/21 10:21:33;;;;;;;6.55;5.28;;;24.70;36.00;;;16.91;41.76;95910.44;4946642;28;20114;-55
2023/02/21 10:24:15;;;;;;;8.60;4.72;;;24.90;35.50;;;17.14;40.78;95910.56;4943876;28;20039;-56
2023/02/21 10:27:04;;;;;;;7.38;4.80;;;25.10;35.10;;;17.33;40.02;95903.22;4943139;28;20034;-57
2023/02/21 10:29:55;;;;;;;7.60;5.45;;;25.20;34.50;;;17.52;39.84;95903.09;4932007;29;20164;-54
2023/02/21 10:32:24;;;;;;;5.82;4.85;;;25.40;34.50;;;17.60;39.54;95899.69;4936778;28;20015;-53
2023/02/21 10:35:00;;;;;;;6.53;5.50;;;25.50;34.20;;;17.72;39.61;95894.59;4944334;28;20063;-55
2023/02/21 10:37:56;;;;;;;6.82;5.65;;;25.70;33.70;;;17.99;39.52;95891.06;4924240;29;20047;-56
2023/02/21 10:40:45;;;;;;;10.10;5.40;;;25.90;33.60;;;18.13;38.84;95899.09;4944337;28;20035;-56
2023/02/21 10:43:50;;;;;;;6.82;5.82;;;26.10;33.20;;;17.75;38.85;95902.06;4933067;29;20113;-57
2023/02/21 10:46:36;;;;;;;6.05;5.43;;;26.20;33.00;;;17.73;39.49;95893.47;4929279;28;20035;-56
2023/02/21 10:49:28;;;;;;;8.32;5.60;;;26.30;32.40;;;18.22;38.46;95894.56;4944871;28;20019;-53
2023/02/21 10:52:24;;;;;;;7.90;6.25;;;26.40;32.30;;;18.41;38.50;95894.41;4955543;28;20080;-54
2023/02/21 10:55:22;;;;;;;7.65;5.57;;;26.50;32.20;;;18.83;37.10;95889.59;4942590;28;20091;-51
2023/02/21 10:58:17;;;;;;;9.48;6.15;;;26.80;32.00;;;18.96;37.10;95879.84;4928948;29;20878;-52
2023/02/21 11:00:46;;;;;;;7.55;6.05;;;27.00;31.60;;;19.02;36.33;95875.09;4945816;28;20393;-51
2023/02/21 11:03:30;;;;;;;8.70;6.57;;;27.20;31.30;;;18.88;36.92;95872.50;4913546;29;20162;-53
2023/02/21 11:06:00;;;;;;;9.57;6.43;;;27.30;30.80;;;18.80;36.78;95871.31;4930898;29;20050;-50
2023/02/21 11:08:43;;;;;;;10.25;6.43;;;27.50;30.50;;;18.84;36.68;95861.53;4933302;28;20046;-50
2023/02/21 11:11:26;;;;;;;10.50;7.05;;;27.50;30.00;;;19.22;35.99;95854.84;4932056;29;20080;-51
2023/02/21 11:14:24;;;;;;;7.82;6.38;;;27.70;30.50;;;19.17;36.23;95848.47;4923812;28;20034;-58
2023/02/21 11:17:11;;;;;;;12.30;6.15;;;27.80;29.90;;;19.32;36.13;95847.25;4946193;28;20041;-56
2023/02/21 11:20:20;;;;;;;7.40;6.70;;;28.10;29.60;;;19.63;35.71;95843.66;4944869;28;20020;-53
2023/02/21 11:22:58;;;;;;;7.13;6.43;;;28.30;29.70;;;19.99;35.73;95837.97;4925366;29;20043;-55
2023/02/21 11:25:31;;;;;;;8.27;6.88;;;28.50;29.40;;;20.33;34.87;95831.75;4913611;29;20126;-57
2023/02/21 11:28:12;;;;;;;7.55;6.72;;;28.80;29.20;;;20.65;33.96;95831.56;4935323;28;20037;-53
2023/02/21 11:31:14;;;;;;;7.75;6.68;;;29.00;28.80;;;20.62;33.00;95821.38;4931676;29;20027;-53
2023/02/21 11:34:04;;;;;;;8.60;6.50;;;29.10;28.50;;;20.58;33.68;95823.16;4942331;28;20043;-52
2023/02/21 11:36:42;;;;;;;6.90;6.20;;;29.30;28.40;;;20.84;33.09;95817.63;4911020;29;20024;-53
2023/02/21 11:39:33;;;;;;;7.47;6.30;;;29.50;28.20;;;20.98;32.38;95802.78;4943916;28;20023;-51
2023/02/21 11:42:21;;;;;;;7.90;6.82;;;29.60;27.80;;;21.02;32.53;95803.69;4946166;28;20065;-54
2023/02/21 11:45:28;;;;;;;7.22;6.53;;;29.70;27.80;;;21.11;32.40;95800.97;4929252;29;20073;-50
2023/02/21 11:48:17;;;;;;;8.45;7.10;;;30.00;27.50;;;21.40;32.87;95792.09;4932115;29;20556;-53
2023/02/21 11:50:54;;;;;;;8.43;6.53;;;30.30;27.50;;;21.61;32.07;95783.94;4944726;28;20023;-53
2023/02/21 11:53:46;;;;;;;6.97;5.97;;;30.60;27.20;;;21.98;30.85;95776.00;4938551;28;20513;-55
2023/02/21 11:57:16;;;;;;;9.43;7.07;;;30.80;26.90;;;22.29;30.39;95769.38;4919842;29;20451;-55
2023/02/21 12:01:00;;;;;;;8.63;6.30;;;31.20;26.80;;;22.59;29.39;95762.66;4940943;28;20023;-52
2023/02/21 12:03:57;;;;;;;8.30;6.30;;;31.40;26.70;;;22.16;29.83;95758.47;4927947;29;20031;-53
2023/02/21 12:06:47;;;;;;;7.28;6.10;;;31.60;26.20;;;21.52;30.94;95745.28;4930915;29;20101;-56
2023/02/21 12:10:12;;;;;;;8.13;6.38;;;31.60;25.90;;;21.91;30.78;95733.16;4945127;28;20134;-55
2023/02/21 12:13:14;;;;;;;8.63;6.40;;;31.60;25.70;;;21.77;30.54;95731.84;4925617;29;20067;-57
2023/02/21 12:16:20;;;;;;;6.43;5.63;;;31.70;25.70;;;21.79;30.20;95719.56;4929822;29;20061;-52
2023/02/21 12:19:31;;;;;;;8.10;7.05;;;31.70;25.60;;;21.75;30.89;95710.50;4928963;29;20078;-52
2023/02/21 12:22:22;;;;;;;6.70;6.05;;;31.90;25.60;;;22.01;30.83;95710.25;4929332;29;20054;-55
2023/02/21 12:25:33;;;;;;;6.93;6.15;;;32.00;25.20;;;22.37;30.42;95709.56;4943419;28;20434;-54
2023/02/21 12:28:49;;;;;;;6.95;6.25;;;32.10;25.20;;;22.74;29.57;95698.75;4945882;28;20045;-55
2023/02/21 12:32:08;;;;;;;6.43;5.82;;;32.20;25.10;;;22.99;29.27;95696.03;4931143;29;20049;-53
2023/02/21 12:35:26;;;;;;;8.52;6.03;;;32.40;25.00;;;23.00;28.67;95694.91;4924556;29;20458;-56
2023/02/21 12:38:26;;;;;;;6.90;6.18;;;32.70;24.80;;;22.90;29.37;95687.97;4918171;29;20042;-54
2023/02/21 12:40:59;;;;;;;6.80;6.10;;;32.80;24.40;;;22.71;28.66;95679.63;4930149;29;20540;-53
2023/02/21 12:44:29;;;;;;;7.20;6.50;;;32.90;24.30;;;22.83;29.26;95683.13;4945351;29;20051;-55
2023/02/21 12:47:28;;;;;;;8.95;6.13;;;32.90;24.40;;;22.65;29.76;95676.34;4944525;29;20114;-55
2023/02/21 12:50:16;;;;;;;8.02;6.38;;;33.00;24.30;;;22.91;29.92;95672.47;4929190;29;20585;-52
2023/02/21 12:53:35;;;;;;;7.60;6.47;;;32.90;24.10;;;23.18;29.52;95666.34;4943143;29;20046;-54
2023/02/21 12:57:02;;;;;;;7.32;6.00;;;33.00;24.20;;;23.05;29.67;95657.44;4930246;29;20089;-53
2023/02/21 12:59:51;;;;;;;8.32;6.07;;;33.00;24.30;;;22.81;30.42;95654.72;4920106;29;20050;-53
2023/02/21 13:03:34;;;;;;;7.97;7.18;;;33.00;24.10;;;22.74;32.38;95649.88;4929326;29;20015;-53
2023/02/21 13:06:19;;;;;;;7.60;6.80;;;32.90;24.30;;;22.89;30.95;95634.81;4942231;29;20031;-52
2023/02/21 13:09:23;;;;;;;8.68;7.40;;;32.70;24.20;;;22.91;31.29;95645.31;4946675;28;20023;-55
2023/02/21 13:12:28;;;;;;;9.50;7.05;;;32.60;24.30;;;22.96;31.19;95632.31;4922535;29;20118;-52
2023/02/21 13:15:28;;;;;;;10.15;7.30;;;32.50;24.50;;;22.94;31.29;95634.63;4932919;28;20039;-54
2023/02/21 13:18:58;;;;;;;8.00;6.78;;;32.30;24.40;;;22.47;32.82;95617.97;4934108;29;20069;-56
2023/02/21 13:22:37;;;;;;;9.95;8.20;;;32.10;24.60;;;22.07;32.08;95618.63;4900022;29;20046;-58
2023/02/21 13:26:04;;;;;;;9.50;7.60;;;31.90;24.50;;;21.69;32.78;95611.53;4933613;28;20818;-57
2023/02/21 13:28:37;;;;;;;8.48;7.63;;;31.60;24.70;;;21.63;32.42;95605.53;4940371;28;20030;-58